sensor_id;sensor_type;location;lat;lon;timestamp;P1;durP1;ratioP1;P2;durP2;ratioP2
38865;SDS011;62686;48.984;8.394;2022-09-02T00:01:31;6.30;;;4.03;;
38865;SDS011;62686;48.984;8.394;2022-09-02T00:04:03;4.50;;;4.03;;
38865;SDS011;62686;48.984;8.394;2022-09-02T00:06:32;7.13;;;4.07;;
38865;SDS011;62686;48.984;8.394;2022-09-02T00:09:02;4.53;;;4.13;;
38865;SDS011;62686;48.984;8.394;2022-09-02T00:11:31;5.40;;;4.10;;
38865;SDS011;62686;48.984;8.394;2022-09-02T00:14:02;8.52;;;4.22;;
38865;SDS011;62686;48.984;8.394;2022-09-02T00:16:31;6.10;;;3.90;;
38865;SDS011;62686;48.984;8.394;2022-09-02T00:19:01;5.15;;;4.35;;
38865;SDS011;62686;48.984;8.394;2022-09-02T00:21:31;4.40;;;4.00;;
38865;SDS011;62686;48.984;8.394;2022-09-02T00:24:01;5.22;;;4.10;;
38865;SDS011;62686;48.984;8.394;2022-09-02T00:26:31;4.78;;;4.00;;
38865;SDS011;62686;48.984;8.394;2022-09-02T00:29:00;7.55;;;4.30;;
38865;SDS011;62686;48.984;8.394;2022-09-02T00:31:28;7.20;;;3.83;;
38865;SDS011;62686;48.984;8.394;2022-09-02T00:33:58;4.95;;;3.67;;
38865;SDS011;62686;48.984;8.394;2022-09-02T00:36:28;4.40;;;4.00;;
38865;SDS011;62686;48.984;8.394;2022-09-02T00:38:56;4.78;;;4.07;;
38865;SDS011;62686;48.984;8.394;2022-09-02T00:41:25;4.95;;;3.72;;
38865;SDS011;62686;48.984;8.394;2022-09-02T00:43:56;5.10;;;4.13;;
38865;SDS011;62686;48.984;8.394;2022-09-02T00:46:26;6.38;;;3.75;;
38865;SDS011;62686;48.984;8.394;2022-09-02T00:48:57;4.30;;;3.88;;
38865;SDS011;62686;48.984;8.394;2022-09-02T00:51:32;7.90;;;4.13;;
38865;SDS011;62686;48.984;8.394;2022-09-02T00:54:04;4.28;;;3.83;;
38865;SDS011;62686;48.984;8.394;2022-09-02T00:56:34;4.72;;;4.32;;
38865;SDS011;62686;48.984;8.394;2022-09-02T00:59:05;4.32;;;3.92;;
38865;SDS011;62686;48.984;8.394;2022-09-02T01:01:34;6.15;;;4.15;;
38865;SDS011;62686;48.984;8.394;2022-09-02T01:04:03;5.07;;;4.03;;
38865;SDS011;62686;48.984;8.394;2022-09-02T01:06:32;9.95;;;4.20;;
38865;SDS011;62686;48.984;8.394;2022-09-02T01:09:02;4.13;;;3.60;;
38865;SDS011;62686;48.984;8.394;2022-09-02T01:11:36;4.50;;;3.67;;
38865;SDS011;62686;48.984;8.394;2022-09-02T01:14:06;4.15;;;3.75;;
38865;SDS011;62686;48.984;8.394;2022-09-02T01:16:39;5.82;;;4.07;;
38865;SDS011;62686;48.984;8.394;2022-09-02T01:19:12;3.92;;;3.53;;
38865;SDS011;62686;48.984;8.394;2022-09-02T01:21:47;4.82;;;3.60;;
38865;SDS011;62686;48.984;8.394;2022-09-02T01:24:16;4.00;;;3.70;;
38865;SDS011;62686;48.984;8.394;2022-09-02T01:26:46;6.13;;;3.70;;
38865;SDS011;62686;48.984;8.394;2022-09-02T01:29:17;4.50;;;4.10;;
38865;SDS011;62686;48.984;8.394;2022-09-02T01:31:46;4.78;;;3.63;;
38865;SDS011;62686;48.984;8.394;2022-09-02T01:34:14;4.53;;;4.07;;
38865;SDS011;62686;48.984;8.394;2022-09-02T01:36:43;6.70;;;3.88;;
38865;SDS011;62686;48.984;8.394;2022-09-02T01:39:12;4.95;;;3.78;;
38865;SDS011;62686;48.984;8.394;2022-09-02T01:41:41;4.47;;;4.07;;
38865;SDS011;62686;48.984;8.394;2022-09-02T01:44:09;4.43;;;4.00;;
38865;SDS011;62686;48.984;8.394;2022-09-02T01:46:41;4.32;;;3.92;;
38865;SDS011;62686;48.984;8.394;2022-09-02T01:49:10;7.07;;;4.07;;
38865;SDS011;62686;48.984;8.394;2022-09-02T01:51:38;4.77;;;3.87;;
38865;SDS011;62686;48.984;8.394;2022-09-02T01:54:07;4.97;;;4.20;;
38865;SDS011;62686;48.984;8.394;2022-09-02T01:56:36;5.05;;;4.05;;
38865;SDS011;62686;48.984;8.394;2022-09-02T01:59:05;4.43;;;4.03;;
38865;SDS011;62686;48.984;8.394;2022-09-02T02:01:34;5.78;;;3.40;;
38865;SDS011;62686;48.984;8.394;2022-09-02T02:04:02;4.88;;;3.88;;
38865;SDS011;62686;48.984;8.394;2022-09-02T02:06:32;6.72;;;4.30;;
38865;SDS011;62686;48.984;8.394;2022-09-02T02:09:00;4.00;;;3.58;;
38865;SDS011;62686;48.984;8.394;2022-09-02T02:11:28;3.70;;;3.40;;
38865;SDS011;62686;48.984;8.394;2022-09-02T02:13:58;4.50;;;3.28;;
38865;SDS011;62686;48.984;8.394;2022-09-02T02:16:26;3.92;;;3.63;;
38865;SDS011;62686;48.984;8.394;2022-09-02T02:18:54;6.65;;;3.63;;
38865;SDS011;62686;48.984;8.394;2022-09-02T02:21:22;4.05;;;3.70;;
38865;SDS011;62686;48.984;8.394;2022-09-02T02:23:51;6.40;;;4.30;;
38865;SDS011;62686;48.984;8.394;2022-09-02T02:26:19;5.97;;;3.80;;
38865;SDS011;62686;48.984;8.394;2022-09-02T02:28:48;4.30;;;3.80;;
38865;SDS011;62686;48.984;8.394;2022-09-02T02:31:18;6.00;;;3.83;;
38865;SDS011;62686;48.984;8.394;2022-09-02T02:33:46;4.15;;;3.80;;
38865;SDS011;62686;48.984;8.394;2022-09-02T02:36:14;3.58;;;3.28;;
38865;SDS011;62686;48.984;8.394;2022-09-02T02:38:42;6.65;;;3.97;;
38865;SDS011;62686;48.984;8.394;2022-09-02T02:41:11;4.40;;;3.70;;
38865;SDS011;62686;48.984;8.394;2022-09-02T02:43:40;5.72;;;3.60;;
38865;SDS011;62686;48.984;8.394;2022-09-02T02:46:09;7.38;;;3.78;;
38865;SDS011;62686;48.984;8.394;2022-09-02T02:48:39;5.95;;;3.55;;
38865;SDS011;62686;48.984;8.394;2022-09-02T02:51:08;7.50;;;4.25;;
38865;SDS011;62686;48.984;8.394;2022-09-02T02:53:36;4.15;;;3.75;;
38865;SDS011;62686;48.984;8.394;2022-09-02T02:56:05;5.10;;;3.55;;
38865;SDS011;62686;48.984;8.394;2022-09-02T02:58:35;4.30;;;3.53;;
38865;SDS011;62686;48.984;8.394;2022-09-02T03:01:03;4.40;;;4.00;;
38865;SDS011;62686;48.984;8.394;2022-09-02T03:03:32;3.85;;;3.53;;
38865;SDS011;62686;48.984;8.394;2022-09-02T03:06:03;3.80;;;3.40;;
38865;SDS011;62686;48.984;8.394;2022-09-02T03:08:31;4.78;;;3.40;;
38865;SDS011;62686;48.984;8.394;2022-09-02T03:11:02;3.40;;;3.10;;
38865;SDS011;62686;48.984;8.394;2022-09-02T03:13:33;4.68;;;3.63;;
38865;SDS011;62686;48.984;8.394;2022-09-02T03:16:02;6.32;;;3.60;;
38865;SDS011;62686;48.984;8.394;2022-09-02T03:18:32;4.60;;;3.72;;
38865;SDS011;62686;48.984;8.394;2022-09-02T03:21:00;6.32;;;3.40;;
38865;SDS011;62686;48.984;8.394;2022-09-02T03:23:30;6.20;;;3.53;;
38865;SDS011;62686;48.984;8.394;2022-09-02T03:25:58;3.80;;;3.30;;
38865;SDS011;62686;48.984;8.394;2022-09-02T03:28:26;5.78;;;3.47;;
38865;SDS011;62686;48.984;8.394;2022-09-02T03:30:54;5.93;;;3.70;;
38865;SDS011;62686;48.984;8.394;2022-09-02T03:33:23;5.35;;;2.90;;
38865;SDS011;62686;48.984;8.394;2022-09-02T03:35:51;5.93;;;3.28;;
38865;SDS011;62686;48.984;8.394;2022-09-02T03:38:19;3.53;;;3.22;;
38865;SDS011;62686;48.984;8.394;2022-09-02T03:40:49;3.47;;;3.15;;
38865;SDS011;62686;48.984;8.394;2022-09-02T03:43:17;4.55;;;2.90;;
38865;SDS011;62686;48.984;8.394;2022-09-02T03:45:45;3.65;;;3.13;;
38865;SDS011;62686;48.984;8.394;2022-09-02T03:48:13;5.10;;;2.92;;
38865;SDS011;62686;48.984;8.394;2022-09-02T03:50:43;5.70;;;2.95;;
38865;SDS011;62686;48.984;8.394;2022-09-02T03:53:13;3.17;;;2.65;;
38865;SDS011;62686;48.984;8.394;2022-09-02T03:55:41;3.78;;;2.60;;
38865;SDS011;62686;48.984;8.394;2022-09-02T03:58:11;4.88;;;3.20;;
38865;SDS011;62686;48.984;8.394;2022-09-02T04:00:40;3.10;;;2.85;;
38865;SDS011;62686;48.984;8.394;2022-09-02T04:03:09;4.10;;;2.88;;
38865;SDS011;62686;48.984;8.394;2022-09-02T04:05:37;3.75;;;3.30;;
38865;SDS011;62686;48.984;8.394;2022-09-02T04:08:05;3.55;;;2.70;;
38865;SDS011;62686;48.984;8.394;2022-09-02T04:10:33;6.20;;;2.80;;
38865;SDS011;62686;48.984;8.394;2022-09-02T04:13:04;4.13;;;2.92;;
38865;SDS011;62686;48.984;8.394;2022-09-02T04:15:34;3.10;;;2.80;;
38865;SDS011;62686;48.984;8.394;2022-09-02T04:22:17;5.57;;;3.15;;
38865;SDS011;62686;48.984;8.394;2022-09-02T04:24:45;4.38;;;3.28;;
38865;SDS011;62686;48.984;8.394;2022-09-02T04:27:13;4.38;;;2.78;;
38865;SDS011;62686;48.984;8.394;2022-09-02T04:29:41;4.90;;;2.78;;
38865;SDS011;62686;48.984;8.394;2022-09-02T04:32:11;4.22;;;2.72;;
38865;SDS011;62686;48.984;8.394;2022-09-02T04:34:39;5.22;;;3.00;;
38865;SDS011;62686;48.984;8.394;2022-09-02T04:37:07;3.70;;;3.33;;
38865;SDS011;62686;48.984;8.394;2022-09-02T04:39:35;3.72;;;3.10;;
38865;SDS011;62686;48.984;8.394;2022-09-02T04:42:04;5.17;;;3.17;;
38865;SDS011;62686;48.984;8.394;2022-09-02T04:44:32;3.08;;;2.72;;
38865;SDS011;62686;48.984;8.394;2022-09-02T04:47:00;4.70;;;2.85;;
38865;SDS011;62686;48.984;8.394;2022-09-02T04:49:30;5.07;;;2.97;;
38865;SDS011;62686;48.984;8.394;2022-09-02T04:51:59;4.25;;;3.03;;
38865;SDS011;62686;48.984;8.394;2022-09-02T04:54:27;3.63;;;2.95;;
38865;SDS011;62686;48.984;8.394;2022-09-02T04:56:55;3.50;;;2.80;;
38865;SDS011;62686;48.984;8.394;2022-09-02T04:59:23;3.27;;;2.97;;
38865;SDS011;62686;48.984;8.394;2022-09-02T05:01:52;5.13;;;3.22;;
38865;SDS011;62686;48.984;8.394;2022-09-02T05:04:20;3.77;;;2.77;;
38865;SDS011;62686;48.984;8.394;2022-09-02T05:06:50;4.70;;;3.00;;
38865;SDS011;62686;48.984;8.394;2022-09-02T05:09:19;3.40;;;3.10;;
38865;SDS011;62686;48.984;8.394;2022-09-02T05:11:48;5.57;;;3.17;;
38865;SDS011;62686;48.984;8.394;2022-09-02T05:14:17;3.37;;;3.07;;
38865;SDS011;62686;48.984;8.394;2022-09-02T05:16:45;5.60;;;2.87;;
38865;SDS011;62686;48.984;8.394;2022-09-02T05:19:14;3.60;;;3.30;;
38865;SDS011;62686;48.984;8.394;2022-09-02T05:21:42;4.82;;;3.13;;
38865;SDS011;62686;48.984;8.394;2022-09-02T05:24:13;7.18;;;3.17;;
38865;SDS011;62686;48.984;8.394;2022-09-02T05:26:42;4.03;;;3.23;;
38865;SDS011;62686;48.984;8.394;2022-09-02T05:29:11;4.23;;;3.30;;
38865;SDS011;62686;48.984;8.394;2022-09-02T05:32:05;5.50;;;3.13;;
38865;SDS011;62686;48.984;8.394;2022-09-02T05:34:34;5.57;;;2.97;;
38865;SDS011;62686;48.984;8.394;2022-09-02T05:37:02;3.20;;;2.80;;
38865;SDS011;62686;48.984;8.394;2022-09-02T05:39:32;4.50;;;3.30;;
38865;SDS011;62686;48.984;8.394;2022-09-02T05:42:00;3.40;;;2.70;;
38865;SDS011;62686;48.984;8.394;2022-09-02T05:44:29;3.47;;;2.93;;
38865;SDS011;62686;48.984;8.394;2022-09-02T05:46:57;8.37;;;3.10;;
38865;SDS011;62686;48.984;8.394;2022-09-02T05:49:25;5.60;;;2.83;;
38865;SDS011;62686;48.984;8.394;2022-09-02T05:51:54;3.72;;;2.95;;
38865;SDS011;62686;48.984;8.394;2022-09-02T05:54:24;3.55;;;2.50;;
38865;SDS011;62686;48.984;8.394;2022-09-02T05:56:56;5.70;;;2.67;;
38865;SDS011;62686;48.984;8.394;2022-09-02T05:59:26;4.28;;;2.60;;
38865;SDS011;62686;48.984;8.394;2022-09-02T06:01:55;4.05;;;2.55;;
38865;SDS011;62686;48.984;8.394;2022-09-02T06:04:25;5.45;;;2.58;;
38865;SDS011;62686;48.984;8.394;2022-09-02T06:06:53;5.00;;;2.58;;
38865;SDS011;62686;48.984;8.394;2022-09-02T06:09:22;2.58;;;2.30;;
38865;SDS011;62686;48.984;8.394;2022-09-02T06:11:50;5.88;;;2.00;;
38865;SDS011;62686;48.984;8.394;2022-09-02T06:14:21;2.75;;;2.40;;
38865;SDS011;62686;48.984;8.394;2022-09-02T06:16:51;3.47;;;2.10;;
38865;SDS011;62686;48.984;8.394;2022-09-02T06:19:20;2.83;;;2.40;;
38865;SDS011;62686;48.984;8.394;2022-09-02T06:21:50;3.58;;;2.33;;
38865;SDS011;62686;48.984;8.394;2022-09-02T06:24:19;3.17;;;2.55;;
38865;SDS011;62686;48.984;8.394;2022-09-02T06:26:47;2.95;;;1.90;;
38865;SDS011;62686;48.984;8.394;2022-09-02T06:29:16;3.75;;;2.00;;
38865;SDS011;62686;48.984;8.394;2022-09-02T06:31:46;4.05;;;1.92;;
38865;SDS011;62686;48.984;8.394;2022-09-02T06:34:15;3.63;;;1.50;;
38865;SDS011;62686;48.984;8.394;2022-09-02T06:36:45;1.98;;;1.60;;
38865;SDS011;62686;48.984;8.394;2022-09-02T06:39:17;6.63;;;1.70;;
38865;SDS011;62686;48.984;8.394;2022-09-02T06:41:46;5.53;;;1.80;;
38865;SDS011;62686;48.984;8.394;2022-09-02T06:44:15;2.42;;;1.40;;
38865;SDS011;62686;48.984;8.394;2022-09-02T06:46:46;3.40;;;1.50;;
38865;SDS011;62686;48.984;8.394;2022-09-02T06:49:19;2.55;;;1.40;;
38865;SDS011;62686;48.984;8.394;2022-09-02T06:51:49;5.40;;;1.55;;
38865;SDS011;62686;48.984;8.394;2022-09-02T06:54:19;4.63;;;1.50;;
38865;SDS011;62686;48.984;8.394;2022-09-02T06:56:49;1.67;;;1.45;;
38865;SDS011;62686;48.984;8.394;2022-09-02T06:59:18;4.03;;;1.40;;
38865;SDS011;62686;48.984;8.394;2022-09-02T07:01:49;1.60;;;1.30;;
38865;SDS011;62686;48.984;8.394;2022-09-02T07:04:17;2.10;;;1.40;;
38865;SDS011;62686;48.984;8.394;2022-09-02T07:07:04;3.47;;;1.33;;
38865;SDS011;62686;48.984;8.394;2022-09-02T07:09:33;2.22;;;1.40;;
38865;SDS011;62686;48.984;8.394;2022-09-02T07:12:02;3.42;;;1.30;;
38865;SDS011;62686;48.984;8.394;2022-09-02T07:14:35;2.05;;;1.50;;
38865;SDS011;62686;48.984;8.394;2022-09-02T07:17:06;1.60;;;1.27;;
38865;SDS011;62686;48.984;8.394;2022-09-02T07:19:35;3.60;;;1.52;;
38865;SDS011;62686;48.984;8.394;2022-09-02T07:22:04;1.58;;;1.30;;
38865;SDS011;62686;48.984;8.394;2022-09-02T07:24:33;1.75;;;1.30;;
38865;SDS011;62686;48.984;8.394;2022-09-02T07:27:02;2.55;;;1.50;;
38865;SDS011;62686;48.984;8.394;2022-09-02T07:29:31;1.40;;;1.30;;
38865;SDS011;62686;48.984;8.394;2022-09-02T07:32:00;3.95;;;1.20;;
38865;SDS011;62686;48.984;8.394;2022-09-02T07:34:31;2.08;;;1.30;;
38865;SDS011;62686;48.984;8.394;2022-09-02T07:36:59;2.03;;;1.50;;
38865;SDS011;62686;48.984;8.394;2022-09-02T07:39:29;4.95;;;1.67;;
38865;SDS011;62686;48.984;8.394;2022-09-02T07:41:57;2.08;;;1.42;;
38865;SDS011;62686;48.984;8.394;2022-09-02T07:44:26;1.20;;;1.10;;
38865;SDS011;62686;48.984;8.394;2022-09-02T07:46:54;2.33;;;1.40;;
38865;SDS011;62686;48.984;8.394;2022-09-02T07:49:23;2.88;;;1.30;;
38865;SDS011;62686;48.984;8.394;2022-09-02T07:51:54;3.03;;;1.30;;
38865;SDS011;62686;48.984;8.394;2022-09-02T07:54:23;2.60;;;1.35;;
38865;SDS011;62686;48.984;8.394;2022-09-02T07:56:53;2.95;;;1.60;;
38865;SDS011;62686;48.984;8.394;2022-09-02T07:59:22;2.05;;;1.42;;
38865;SDS011;62686;48.984;8.394;2022-09-02T08:01:51;2.88;;;1.40;;
38865;SDS011;62686;48.984;8.394;2022-09-02T08:04:20;2.58;;;1.20;;
38865;SDS011;62686;48.984;8.394;2022-09-02T08:06:50;3.03;;;1.40;;
38865;SDS011;62686;48.984;8.394;2022-09-02T08:09:20;5.25;;;1.33;;
38865;SDS011;62686;48.984;8.394;2022-09-02T08:11:49;1.75;;;1.30;;
38865;SDS011;62686;48.984;8.394;2022-09-02T08:14:20;4.05;;;1.30;;
38865;SDS011;62686;48.984;8.394;2022-09-02T08:16:51;2.22;;;1.30;;
38865;SDS011;62686;48.984;8.394;2022-09-02T08:19:20;3.30;;;1.35;;
38865;SDS011;62686;48.984;8.394;2022-09-02T08:21:49;3.38;;;1.52;;
38865;SDS011;62686;48.984;8.394;2022-09-02T08:24:18;3.75;;;1.48;;
38865;SDS011;62686;48.984;8.394;2022-09-02T08:26:47;1.80;;;1.40;;
38865;SDS011;62686;48.984;8.394;2022-09-02T08:29:16;1.73;;;1.20;;
38865;SDS011;62686;48.984;8.394;2022-09-02T08:31:44;2.95;;;1.40;;
38865;SDS011;62686;48.984;8.394;2022-09-02T08:34:13;1.90;;;1.50;;
38865;SDS011;62686;48.984;8.394;2022-09-02T08:36:41;2.58;;;1.38;;
38865;SDS011;62686;48.984;8.394;2022-09-02T08:39:10;2.58;;;1.40;;
38865;SDS011;62686;48.984;8.394;2022-09-02T08:41:41;1.85;;;1.40;;
38865;SDS011;62686;48.984;8.394;2022-09-02T08:44:21;7.88;;;1.50;;
38865;SDS011;62686;48.984;8.394;2022-09-02T08:46:51;6.93;;;1.63;;
38865;SDS011;62686;48.984;8.394;2022-09-02T08:49:23;1.95;;;1.40;;
38865;SDS011;62686;48.984;8.394;2022-09-02T08:51:56;2.63;;;1.35;;
38865;SDS011;62686;48.984;8.394;2022-09-02T08:54:29;2.45;;;1.17;;
38865;SDS011;62686;48.984;8.394;2022-09-02T08:57:01;2.38;;;1.20;;
38865;SDS011;62686;48.984;8.394;2022-09-02T08:59:31;5.07;;;1.70;;
38865;SDS011;62686;48.984;8.394;2022-09-02T09:02:00;2.67;;;1.45;;
38865;SDS011;62686;48.984;8.394;2022-09-02T09:04:36;4.53;;;1.60;;
38865;SDS011;62686;48.984;8.394;2022-09-02T09:07:23;3.72;;;1.40;;
38865;SDS011;62686;48.984;8.394;2022-09-02T09:10:04;1.90;;;1.27;;
38865;SDS011;62686;48.984;8.394;2022-09-02T09:15:49;3.25;;;1.13;;
38865;SDS011;62686;48.984;8.394;2022-09-02T09:18:23;4.70;;;1.20;;
38865;SDS011;62686;48.984;8.394;2022-09-02T09:21:00;1.90;;;1.25;;
38865;SDS011;62686;48.984;8.394;2022-09-02T09:23:29;4.47;;;1.55;;
38865;SDS011;62686;48.984;8.394;2022-09-02T09:26:04;2.08;;;1.30;;
38865;SDS011;62686;48.984;8.394;2022-09-02T09:28:38;4.40;;;1.35;;
38865;SDS011;62686;48.984;8.394;2022-09-02T09:31:11;2.40;;;1.23;;
38865;SDS011;62686;48.984;8.394;2022-09-02T09:33:53;1.80;;;1.13;;
38865;SDS011;62686;48.984;8.394;2022-09-02T09:36:42;2.70;;;1.45;;
38865;SDS011;62686;48.984;8.394;2022-09-02T09:39:16;5.18;;;1.50;;
38865;SDS011;62686;48.984;8.394;2022-09-02T09:41:46;2.60;;;1.60;;
38865;SDS011;62686;48.984;8.394;2022-09-02T09:47:16;6.78;;;1.60;;
38865;SDS011;62686;48.984;8.394;2022-09-02T09:49:47;1.83;;;1.25;;
38865;SDS011;62686;48.984;8.394;2022-09-02T09:52:22;4.22;;;1.42;;
38865;SDS011;62686;48.984;8.394;2022-09-02T09:57:47;2.58;;;1.50;;
38865;SDS011;62686;48.984;8.394;2022-09-02T10:00:19;3.40;;;1.27;;
38865;SDS011;62686;48.984;8.394;2022-09-02T10:02:50;2.83;;;1.30;;
38865;SDS011;62686;48.984;8.394;2022-09-02T10:05:31;1.75;;;1.17;;
38865;SDS011;62686;48.984;8.394;2022-09-02T10:08:02;1.40;;;1.20;;
38865;SDS011;62686;48.984;8.394;2022-09-02T10:10:32;3.85;;;1.23;;
38865;SDS011;62686;48.984;8.394;2022-09-02T10:13:15;1.77;;;1.17;;
38865;SDS011;62686;48.984;8.394;2022-09-02T10:15:52;2.45;;;1.30;;
38865;SDS011;62686;48.984;8.394;2022-09-02T10:18:32;4.20;;;1.30;;
38865;SDS011;62686;48.984;8.394;2022-09-02T10:21:07;3.50;;;1.30;;
38865;SDS011;62686;48.984;8.394;2022-09-02T10:23:44;1.38;;;1.02;;
38865;SDS011;62686;48.984;8.394;2022-09-02T10:26:23;1.67;;;1.30;;
38865;SDS011;62686;48.984;8.394;2022-09-02T10:29:07;2.85;;;1.20;;
38865;SDS011;62686;48.984;8.394;2022-09-02T10:31:52;1.40;;;1.13;;
38865;SDS011;62686;48.984;8.394;2022-09-02T10:34:29;4.30;;;1.35;;
38865;SDS011;62686;48.984;8.394;2022-09-02T10:37:09;1.75;;;1.10;;
38865;SDS011;62686;48.984;8.394;2022-09-02T10:39:53;3.67;;;1.23;;
38865;SDS011;62686;48.984;8.394;2022-09-02T10:42:47;1.25;;;1.10;;
38865;SDS011;62686;48.984;8.394;2022-09-02T10:45:28;3.92;;;1.10;;
38865;SDS011;62686;48.984;8.394;2022-09-02T10:51:00;2.33;;;1.17;;
38865;SDS011;62686;48.984;8.394;2022-09-02T10:53:34;1.77;;;1.20;;
38865;SDS011;62686;48.984;8.394;2022-09-02T10:56:11;3.13;;;1.10;;
38865;SDS011;62686;48.984;8.394;2022-09-02T10:58:43;1.92;;;1.23;;
38865;SDS011;62686;48.984;8.394;2022-09-02T11:01:18;1.75;;;1.30;;
38865;SDS011;62686;48.984;8.394;2022-09-02T11:03:53;1.80;;;1.15;;
38865;SDS011;62686;48.984;8.394;2022-09-02T11:06:31;1.77;;;1.10;;
38865;SDS011;62686;48.984;8.394;2022-09-02T11:09:11;1.70;;;1.20;;
38865;SDS011;62686;48.984;8.394;2022-09-02T11:11:52;3.92;;;1.20;;
38865;SDS011;62686;48.984;8.394;2022-09-02T11:14:26;3.67;;;1.20;;
38865;SDS011;62686;48.984;8.394;2022-09-02T11:17:01;4.53;;;1.13;;
38865;SDS011;62686;48.984;8.394;2022-09-02T11:19:36;2.15;;;1.10;;
38865;SDS011;62686;48.984;8.394;2022-09-02T11:22:12;5.80;;;1.30;;
38865;SDS011;62686;48.984;8.394;2022-09-02T11:24:51;1.90;;;1.00;;
38865;SDS011;62686;48.984;8.394;2022-09-02T11:27:28;2.75;;;1.20;;
38865;SDS011;62686;48.984;8.394;2022-09-02T11:30:10;3.10;;;1.20;;
38865;SDS011;62686;48.984;8.394;2022-09-02T11:32:42;3.17;;;1.10;;
38865;SDS011;62686;48.984;8.394;2022-09-02T11:35:17;0.88;;;0.80;;
38865;SDS011;62686;48.984;8.394;2022-09-02T11:37:55;2.45;;;0.93;;
38865;SDS011;62686;48.984;8.394;2022-09-02T11:40:28;2.13;;;1.08;;
38865;SDS011;62686;48.984;8.394;2022-09-02T11:43:13;3.40;;;1.20;;
38865;SDS011;62686;48.984;8.394;2022-09-02T11:45:54;1.20;;;1.10;;
38865;SDS011;62686;48.984;8.394;2022-09-02T11:51:44;2.13;;;0.90;;
38865;SDS011;62686;48.984;8.394;2022-09-02T11:54:26;2.13;;;0.90;;
38865;SDS011;62686;48.984;8.394;2022-09-02T11:57:00;1.52;;;1.00;;
38865;SDS011;62686;48.984;8.394;2022-09-02T12:02:43;2.65;;;1.20;;
38865;SDS011;62686;48.984;8.394;2022-09-02T12:11:45;2.72;;;0.88;;
38865;SDS011;62686;48.984;8.394;2022-09-02T12:17:33;1.42;;;0.80;;
38865;SDS011;62686;48.984;8.394;2022-09-02T12:20:04;1.00;;;0.68;;
38865;SDS011;62686;48.984;8.394;2022-09-02T12:22:35;1.48;;;0.90;;
38865;SDS011;62686;48.984;8.394;2022-09-02T12:28:14;1.58;;;0.90;;
38865;SDS011;62686;48.984;8.394;2022-09-02T12:33:40;2.75;;;1.00;;
38865;SDS011;62686;48.984;8.394;2022-09-02T12:42:18;0.98;;;0.90;;
38865;SDS011;62686;48.984;8.394;2022-09-02T12:44:56;2.05;;;1.10;;
38865;SDS011;62686;48.984;8.394;2022-09-02T12:47:34;3.08;;;1.00;;
38865;SDS011;62686;48.984;8.394;2022-09-02T12:50:17;0.90;;;0.70;;
38865;SDS011;62686;48.984;8.394;2022-09-02T12:52:51;5.50;;;1.10;;
38865;SDS011;62686;48.984;8.394;2022-09-02T12:55:52;2.08;;;0.80;;
38865;SDS011;62686;48.984;8.394;2022-09-02T12:58:22;1.40;;;1.00;;
38865;SDS011;62686;48.984;8.394;2022-09-02T13:00:55;0.95;;;0.85;;
38865;SDS011;62686;48.984;8.394;2022-09-02T13:03:39;3.42;;;0.90;;
38865;SDS011;62686;48.984;8.394;2022-09-02T13:06:27;2.60;;;1.00;;
38865;SDS011;62686;48.984;8.394;2022-09-02T13:09:27;1.42;;;0.80;;
38865;SDS011;62686;48.984;8.394;2022-09-02T13:15:21;3.15;;;0.90;;
38865;SDS011;62686;48.984;8.394;2022-09-02T13:21:04;2.25;;;1.23;;
38865;SDS011;62686;48.984;8.394;2022-09-02T13:24:00;1.92;;;1.10;;
38865;SDS011;62686;48.984;8.394;2022-09-02T13:27:00;1.67;;;1.05;;
38865;SDS011;62686;48.984;8.394;2022-09-02T13:29:53;2.33;;;1.08;;
38865;SDS011;62686;48.984;8.394;2022-09-02T13:32:31;2.20;;;0.90;;
38865;SDS011;62686;48.984;8.394;2022-09-02T13:35:02;1.35;;;0.80;;
38865;SDS011;62686;48.984;8.394;2022-09-02T13:37:34;3.00;;;1.02;;
38865;SDS011;62686;48.984;8.394;2022-09-02T13:40:05;2.58;;;0.73;;
38865;SDS011;62686;48.984;8.394;2022-09-02T13:42:46;2.35;;;1.00;;
38865;SDS011;62686;48.984;8.394;2022-09-02T13:45:16;1.50;;;0.90;;
38865;SDS011;62686;48.984;8.394;2022-09-02T13:47:45;1.77;;;0.80;;
38865;SDS011;62686;48.984;8.394;2022-09-02T13:50:17;7.90;;;1.00;;
38865;SDS011;62686;48.984;8.394;2022-09-02T13:52:50;1.45;;;1.00;;
38865;SDS011;62686;48.984;8.394;2022-09-02T13:55:46;2.55;;;0.90;;
38865;SDS011;62686;48.984;8.394;2022-09-02T13:58:24;1.13;;;0.80;;
38865;SDS011;62686;48.984;8.394;2022-09-02T14:01:17;1.17;;;1.00;;
38865;SDS011;62686;48.984;8.394;2022-09-02T14:03:48;5.03;;;1.05;;
38865;SDS011;62686;48.984;8.394;2022-09-02T14:06:18;4.05;;;1.08;;
38865;SDS011;62686;48.984;8.394;2022-09-02T14:08:51;3.00;;;0.85;;
38865;SDS011;62686;48.984;8.394;2022-09-02T14:11:23;1.67;;;1.20;;
38865;SDS011;62686;48.984;8.394;2022-09-02T14:13:52;2.60;;;0.90;;
38865;SDS011;62686;48.984;8.394;2022-09-02T14:16:23;2.40;;;0.93;;
38865;SDS011;62686;48.984;8.394;2022-09-02T14:19:02;4.60;;;0.90;;
38865;SDS011;62686;48.984;8.394;2022-09-02T14:21:36;4.15;;;1.15;;
38865;SDS011;62686;48.984;8.394;2022-09-02T14:24:12;2.20;;;1.00;;
38865;SDS011;62686;48.984;8.394;2022-09-02T14:26:43;3.10;;;1.00;;
38865;SDS011;62686;48.984;8.394;2022-09-02T14:29:13;3.00;;;0.90;;
38865;SDS011;62686;48.984;8.394;2022-09-02T14:31:43;4.63;;;0.95;;
38865;SDS011;62686;48.984;8.394;2022-09-02T14:34:32;3.55;;;1.10;;
38865;SDS011;62686;48.984;8.394;2022-09-02T14:37:12;3.55;;;0.88;;
38865;SDS011;62686;48.984;8.394;2022-09-02T14:42:44;1.75;;;1.00;;
38865;SDS011;62686;48.984;8.394;2022-09-02T14:45:14;1.00;;;0.90;;
38865;SDS011;62686;48.984;8.394;2022-09-02T14:47:52;3.20;;;1.08;;
38865;SDS011;62686;48.984;8.394;2022-09-02T14:50:22;1.45;;;1.10;;
38865;SDS011;62686;48.984;8.394;2022-09-02T14:52:54;2.58;;;1.13;;
38865;SDS011;62686;48.984;8.394;2022-09-02T14:58:25;3.20;;;1.38;;
38865;SDS011;62686;48.984;8.394;2022-09-02T15:00:54;1.55;;;1.08;;
38865;SDS011;62686;48.984;8.394;2022-09-02T15:03:26;1.38;;;0.98;;
38865;SDS011;62686;48.984;8.394;2022-09-02T15:05:55;1.17;;;0.80;;
38865;SDS011;62686;48.984;8.394;2022-09-02T15:08:23;4.85;;;1.20;;
38865;SDS011;62686;48.984;8.394;2022-09-02T15:10:52;2.72;;;1.02;;
38865;SDS011;62686;48.984;8.394;2022-09-02T15:13:27;2.35;;;1.10;;
38865;SDS011;62686;48.984;8.394;2022-09-02T15:15:59;1.40;;;1.00;;
38865;SDS011;62686;48.984;8.394;2022-09-02T15:18:28;3.08;;;1.13;;
38865;SDS011;62686;48.984;8.394;2022-09-02T15:20:56;1.60;;;0.95;;
38865;SDS011;62686;48.984;8.394;2022-09-02T15:23:24;1.55;;;1.05;;
38865;SDS011;62686;48.984;8.394;2022-09-02T15:25:52;1.08;;;0.95;;
38865;SDS011;62686;48.984;8.394;2022-09-02T15:28:20;1.40;;;1.10;;
38865;SDS011;62686;48.984;8.394;2022-09-02T15:30:56;2.40;;;1.00;;
38865;SDS011;62686;48.984;8.394;2022-09-02T15:33:25;1.63;;;0.90;;
38865;SDS011;62686;48.984;8.394;2022-09-02T15:35:54;1.60;;;1.10;;
38865;SDS011;62686;48.984;8.394;2022-09-02T15:38:30;3.75;;;1.13;;
38865;SDS011;62686;48.984;8.394;2022-09-02T15:41:08;1.90;;;1.05;;
38865;SDS011;62686;48.984;8.394;2022-09-02T15:43:38;5.03;;;1.20;;
38865;SDS011;62686;48.984;8.394;2022-09-02T15:46:15;1.08;;;0.90;;
38865;SDS011;62686;48.984;8.394;2022-09-02T15:48:45;2.35;;;1.00;;
38865;SDS011;62686;48.984;8.394;2022-09-02T15:51:14;1.85;;;1.00;;
38865;SDS011;62686;48.984;8.394;2022-09-02T15:53:43;1.40;;;0.90;;
38865;SDS011;62686;48.984;8.394;2022-09-02T15:56:15;2.22;;;1.15;;
38865;SDS011;62686;48.984;8.394;2022-09-02T15:58:44;3.90;;;1.25;;
38865;SDS011;62686;48.984;8.394;2022-09-02T16:01:14;1.10;;;1.00;;
38865;SDS011;62686;48.984;8.394;2022-09-02T16:03:42;2.83;;;1.08;;
38865;SDS011;62686;48.984;8.394;2022-09-02T16:06:11;2.72;;;1.10;;
38865;SDS011;62686;48.984;8.394;2022-09-02T16:08:39;2.05;;;1.20;;
38865;SDS011;62686;48.984;8.394;2022-09-02T16:11:07;1.48;;;0.85;;
38865;SDS011;62686;48.984;8.394;2022-09-02T16:13:36;3.58;;;0.90;;